Time;durP1;ratioP1;P1;durP2;ratioP2;P2;SDS_P1;SDS_P2;PMS_P1;PMS_P2;Temp;Humidity;BMP_temperature;BMP_pressure;BME280_temperature;BME280_humidity;BME280_pressure;Samples;Min_cycle;Max_cycle;Signal;HPM_P1;HPM_P2
2022/06/29 00:00:33;;;;;;;;;;;;;;;24.76;100.00;97789.53;5121912;28;19968;-63
2022/06/29 00:03:01;;;;;;;;;;;;;;;24.81;100.00;97800.16;5122665;28;19951;-62
2022/06/29 00:05:29;;;;;;;;;;;;;;;24.88;100.00;97794.88;5120496;28;20200;-63
2022/06/29 00:07:55;;;;;;;;;;;;;;;24.50;100.00;97801.84;5118998;28;19931;-63
2022/06/29 00:10:22;;;;;;;;;;;;;;;24.89;100.00;97801.91;5119975;28;19934;-63
2022/06/29 00:12:49;;;;;;;;;;;;;;;24.93;100.00;97802.78;5122549;28;19945;-63
2022/06/29 00:15:17;;;;;;;;;;;;;;;24.91;100.00;97796.91;5122364;28;19935;-62
2022/06/29 00:17:43;;;;;;;;;;;;;;;25.19;100.00;97792.00;5118820;28;19950;-62
2022/06/29 00:20:12;;;;;;;;;;;;;;;25.50;100.00;97785.59;5120776;27;19935;-62
2022/06/29 00:22:39;;;;;;;;;;;;;;;25.65;100.00;97782.75;5122541;28;19928;-63
2022/06/29 00:25:05;;;;;;;;;;;;;;;25.52;100.00;97786.81;5122133;28;19924;-62
2022/06/29 00:27:32;;;;;;;;;;;;;;;25.51;100.00;97798.88;5119648;28;19931;-63
2022/06/29 00:29:58;;;;;;;;;;;;;;;25.76;100.00;97791.91;5118028;28;19945;-63
2022/06/29 00:32:25;;;;;;;;;;;;;;;25.78;100.00;97806.00;5120321;28;19983;-63
2022/06/29 00:34:51;;;;;;;;;;;;;;;25.74;100.00;97801.66;5122240;28;19924;-63
2022/06/29 00:37:19;;;;;;;;;;;;;;;25.73;100.00;97800.84;5121541;28;19958;-63
2022/06/29 00:39:45;;;;;;;;;;;;;;;25.92;100.00;97799.19;5118859;28;19928;-62
2022/06/29 00:42:12;;;;;;;;;;;;;;;25.91;100.00;97789.41;5118729;28;19948;-62
2022/06/29 00:44:38;;;;;;;;;;;;;;;25.92;100.00;97791.00;5121756;28;19931;-62
2022/06/29 00:47:05;;;;;;;;;;;;;;;25.98;100.00;97800.47;5121610;28;19945;-63
2022/06/29 00:49:32;;;;;;;;;;;;;;;25.75;100.00;97786.78;5119382;28;19924;-62
2022/06/29 00:52:03;;;;;;;;;;;;;;;25.82;100.00;97788.84;5121115;27;19992;-63
2022/06/29 00:54:32;;;;;;;;;;;;;;;25.87;100.00;97781.16;5120417;28;20491;-62
2022/06/29 00:57:02;;;;;;;;;;;;;;;25.22;100.00;97778.38;5121850;28;19947;-62
2022/06/29 00:59:30;;;;;;;;;;;;;;;25.20;100.00;97763.50;5120045;28;19987;-63
2022/06/29 01:01:56;;;;;;;;;;;;;;;25.18;100.00;97757.63;5118280;28;20335;-63
2022/06/29 01:04:23;;;;;;;;;;;;;;;25.70;100.00;97751.53;5119372;28;19998;-64
2022/06/29 01:06:49;;;;;;;;;;;;;;;25.86;100.00;97748.69;5121719;28;20095;-62
2022/06/29 01:09:15;;;;;;;;;;;;;;;25.95;100.00;97746.47;5121527;28;19935;-63
2022/06/29 01:11:44;;;;;;;;;;;;;;;25.57;100.00;97742.72;5118327;28;19928;-62
2022/06/29 01:14:14;;;;;;;;;;;;;;;25.51;100.00;97737.94;5118481;28;19946;-63
2022/06/29 01:16:41;;;;;;;;;;;;;;;25.76;100.00;97731.72;5118338;28;19924;-63
2022/06/29 01:19:07;;;;;;;;;;;;;;;25.85;100.00;97739.69;5118493;28;19924;-63
2022/06/29 01:21:35;;;;;;;;;;;;;;;25.94;100.00;97750.38;5128144;28;19939;-63
2022/06/29 01:24:03;;;;;;;;;;;;;;;25.97;100.00;97750.44;5118193;28;19924;-62
2022/06/29 01:26:30;;;;;;;;;;;;;;;25.05;100.00;97737.88;5120157;28;19924;-62
2022/06/29 01:28:56;;;;;;;;;;;;;;;24.62;100.00;97716.28;5121503;28;19924;-62
2022/06/29 01:31:22;;;;;;;;;;;;;;;24.36;100.00;97710.66;5120161;28;19946;-63
2022/06/29 01:33:49;;;;;;;;;;;;;;;24.63;100.00;97713.19;5117965;28;19935;-63
2022/06/29 01:36:16;;;;;;;;;;;;;;;24.73;100.00;97724.72;5118207;28;19954;-62
2022/06/29 01:38:43;;;;;;;;;;;;;;;24.42;100.00;97712.75;5121077;28;19924;-62
2022/06/29 01:41:11;;;;;;;;;;;;;;;24.35;100.00;97723.53;5123084;28;19919;-62
2022/06/29 01:43:38;;;;;;;;;;;;;;;24.83;100.00;97713.22;5122103;28;19924;-62
2022/06/29 01:46:05;;;;;;;;;;;;;;;24.64;100.00;97698.38;5122019;28;19924;-62
2022/06/29 01:48:31;;;;;;;;;;;;;;;24.89;100.00;97698.09;5124175;28;19924;-62
2022/06/29 01:50:58;;;;;;;;;;;;;;;25.30;100.00;97715.66;5128555;27;19930;-62
2022/06/29 01:53:24;;;;;;;;;;;;;;;25.52;100.00;97717.66;5124333;28;19924;-61
2022/06/29 01:55:51;;;;;;;;;;;;;;;25.14;100.00;97704.84;5122035;28;19924;-62
2022/06/29 01:58:19;;;;;;;;;;;;;;;25.21;100.00;97696.78;5122287;28;19970;-63
2022/06/29 02:00:45;;;;;;;;;;;;;;;25.23;100.00;97697.97;5125385;28;20490;-62
2022/06/29 02:03:12;;;;;;;;;;;;;;;25.23;100.00;97699.91;5125332;28;19946;-63
2022/06/29 02:05:38;;;;;;;;;;;;;;;25.27;100.00;97700.78;5121947;28;20000;-63
2022/06/29 02:08:05;;;;;;;;;;;;;;;25.46;100.00;97703.47;5121596;28;19935;-63
2022/06/29 02:10:31;;;;;;;;;;;;;;;25.26;100.00;97704.66;5123993;28;19978;-63
2022/06/29 02:12:58;;;;;;;;;;;;;;;25.36;100.00;97701.34;5125246;28;19924;-63
2022/06/29 02:15:26;;;;;;;;;;;;;;;25.43;100.00;97698.72;5123719;28;19923;-62
2022/06/29 02:17:52;;;;;;;;;;;;;;;25.34;100.00;97700.13;5121556;28;19950;-63
2022/06/29 02:20:18;;;;;;;;;;;;;;;25.41;100.00;97695.56;5124967;27;19924;-63
2022/06/29 02:22:45;;;;;;;;;;;;;;;25.38;100.00;97700.97;5124813;28;19991;-64
2022/06/29 02:25:11;;;;;;;;;;;;;;;25.34;100.00;97706.38;5124677;28;19924;-63
2022/06/29 02:27:39;;;;;;;;;;;;;;;25.25;100.00;97705.84;5121690;28;19955;-62
2022/06/29 02:30:06;;;;;;;;;;;;;;;24.95;100.00;97691.19;5121358;28;19935;-62
2022/06/29 02:35:18;;;;;;;;;;;;;;;25.07;100.00;97697.28;5124647;28;19935;-62
2022/06/29 02:37:44;;;;;;;;;;;;;;;24.87;100.00;97684.03;5121199;28;20156;-63
2022/06/29 02:40:11;;;;;;;;;;;;;;;24.81;100.00;97677.25;5120850;28;19924;-62
2022/06/29 02:42:37;;;;;;;;;;;;;;;24.63;100.00;97671.47;5123685;28;19970;-63
2022/06/29 02:45:04;;;;;;;;;;;;;;;24.63;100.00;97669.50;5124200;28;19928;-63
2022/06/29 02:47:30;;;;;;;;;;;;;;;24.64;100.00;97667.56;5121892;28;19962;-62
2022/06/29 02:49:58;;;;;;;;;;;;;;;24.61;100.00;97674.53;5102267;28;19924;-64
2022/06/29 02:52:25;;;;;;;;;;;;;;;24.86;100.00;97671.53;5124249;27;19931;-63
2022/06/29 02:54:51;;;;;;;;;;;;;;;24.65;100.00;97680.88;5124103;28;19924;-63
2022/06/29 02:57:17;;;;;;;;;;;;;;;24.41;100.00;97678.44;5123615;28;19977;-63
2022/06/29 02:59:44;;;;;;;;;;;;;;;24.12;100.00;97684.41;5120196;28;19924;-63
2022/06/29 03:02:11;;;;;;;;;;;;;;;24.67;100.00;97691.41;5120534;28;19924;-62
2022/06/29 03:04:37;;;;;;;;;;;;;;;24.58;100.00;97688.91;5123561;28;20010;-62
2022/06/29 03:07:05;;;;;;;;;;;;;;;24.53;100.00;97686.47;5123613;28;19930;-63
2022/06/29 03:09:31;;;;;;;;;;;;;;;24.75;100.00;97706.00;5121224;28;19923;-62
2022/06/29 03:11:58;;;;;;;;;;;;;;;25.04;100.00;97713.63;5120178;28;19924;-62
2022/06/29 03:14:24;;;;;;;;;;;;;;;25.14;100.00;97702.91;5121694;28;20002;-63
2022/06/29 03:16:50;;;;;;;;;;;;;;;24.90;100.00;97702.44;5123639;28;19988;-62
2022/06/29 03:19:17;;;;;;;;;;;;;;;24.83;100.00;97696.81;5123028;28;20455;-63
2022/06/29 03:21:43;;;;;;;;;;;;;;;25.02;100.00;97699.53;5122910;27;19954;-62
2022/06/29 03:24:11;;;;;;;;;;;;;;;25.19;100.00;97707.28;5120259;28;19924;-62
2022/06/29 03:26:37;;;;;;;;;;;;;;;25.22;100.00;97690.94;5123267;28;20015;-62
2022/06/29 03:29:04;;;;;;;;;;;;;;;24.73;100.00;97689.97;5123483;28;19931;-63
2022/06/29 03:31:30;;;;;;;;;;;;;;;24.73;100.00;97688.03;5102647;28;19931;-62
2022/06/29 03:33:56;;;;;;;;;;;;;;;25.05;100.00;97691.41;5119691;28;20023;-62
2022/06/29 03:36:23;;;;;;;;;;;;;;;25.27;100.00;97698.06;5120957;28;19935;-62
2022/06/29 03:38:49;;;;;;;;;;;;;;;25.30;100.00;97691.06;5123042;28;19931;-62
2022/06/29 03:41:17;;;;;;;;;;;;;;;25.12;100.00;97686.09;5122798;28;20619;-62
2022/06/29 03:43:43;;;;;;;;;;;;;;;25.07;100.00;97682.84;5119618;28;19959;-63
2022/06/29 03:46:09;;;;;;;;;;;;;;;25.19;100.00;97697.13;5119729;28;19952;-62
2022/06/29 03:48:36;;;;;;;;;;;;;;;25.30;100.00;97691.06;5122617;28;20063;-64
2022/06/29 03:51:02;;;;;;;;;;;;;;;25.28;100.00;97694.16;5126414;27;19924;-62
2022/06/29 03:53:29;;;;;;;;;;;;;;;25.33;100.00;97699.31;5121115;28;19998;-62
2022/06/29 03:55:56;;;;;;;;;;;;;;;25.39;100.00;97697.88;5119600;28;19931;-61
2022/06/29 03:58:24;;;;;;;;;;;;;;;25.40;100.00;97698.66;5120567;28;19924;-63
2022/06/29 04:00:50;;;;;;;;;;;;;;;25.12;100.00;97690.75;5123007;28;19959;-62
2022/06/29 04:03:16;;;;;;;;;;;;;;;24.73;100.00;97688.03;5122911;28;19930;-62
2022/06/29 04:05:43;;;;;;;;;;;;;;;24.22;100.00;97672.16;5119377;28;20023;-62
2022/06/29 04:08:10;;;;;;;;;;;;;;;24.26;100.00;97676.56;5119334;28;19943;-63
2022/06/29 04:10:37;;;;;;;;;;;;;;;24.30;100.00;97687.50;5122198;28;19924;-63
2022/06/29 04:13:03;;;;;;;;;;;;;;;24.39;100.00;97686.16;5122489;28;19924;-61
2022/06/29 04:15:31;;;;;;;;;;;;;;;24.54;100.00;97700.91;5120209;28;19959;-62
2022/06/29 04:17:57;;;;;;;;;;;;;;;24.57;100.00;97689.28;5118878;28;19963;-61
2022/06/29 04:23:07;;;;;;;;;;;;;;;24.75;100.00;97671.31;5122227;28;19924;-62
2022/06/29 04:25:33;;;;;;;;;;;;;;;24.52;100.00;97671.22;5119495;28;19930;-62
2022/06/29 04:28:00;;;;;;;;;;;;;;;24.78;100.00;97669.78;5118788;28;19966;-63
2022/06/29 04:30:26;;;;;;;;;;;;;;;24.73;100.00;97663.47;5120222;28;20339;-63
2022/06/29 04:32:54;;;;;;;;;;;;;;;24.95;100.00;97661.16;5121888;28;19924;-62
2022/06/29 04:35:20;;;;;;;;;;;;;;;25.01;100.00;97657.75;5121130;28;19923;-64
2022/06/29 04:37:47;;;;;;;;;;;;;;;25.07;100.00;97658.25;5118558;28;19988;-62
2022/06/29 04:40:13;;;;;;;;;;;;;;;25.02;100.00;97670.28;5118409;28;19970;-62
2022/06/29 04:42:39;;;;;;;;;;;;;;;25.19;100.00;97666.28;5118177;28;19980;-61
2022/06/29 04:45:06;;;;;;;;;;;;;;;25.22;100.00;97679.22;5118635;28;19924;-63
2022/06/29 04:47:33;;;;;;;;;;;;;;;25.24;100.00;97674.19;5120787;28;19924;-63
2022/06/29 04:50:00;;;;;;;;;;;;;;;25.11;100.00;97670.03;5121770;28;19963;-63
2022/06/29 04:52:27;;;;;;;;;;;;;;;25.10;100.00;97671.19;5123691;27;19967;-62
2022/06/29 04:54:54;;;;;;;;;;;;;;;24.88;100.00;97669.25;5122059;28;19928;-63
2022/06/29 04:57:20;;;;;;;;;;;;;;;25.02;100.00;97666.75;5121123;28;20412;-62
2022/06/29 04:59:47;;;;;;;;;;;;;;;25.17;100.00;97680.31;5118360;28;19959;-62
2022/06/29 05:02:13;;;;;;;;;;;;;;;25.13;100.00;97673.19;5118354;28;19928;-63
2022/06/29 05:04:39;;;;;;;;;;;;;;;24.81;100.00;97677.25;5121789;28;19958;-63
2022/06/29 05:07:07;;;;;;;;;;;;;;;25.09;100.00;97681.34;5121826;28;19923;-62
2022/06/29 05:09:33;;;;;;;;;;;;;;;25.18;100.00;97700.22;5119145;28;19959;-63
2022/06/29 05:12:00;;;;;;;;;;;;;;;25.27;100.00;97700.00;5118287;28;19996;-62
2022/06/29 05:14:26;;;;;;;;;;;;;;;25.34;100.00;97700.91;5119742;28;19931;-62
2022/06/29 05:16:52;;;;;;;;;;;;;;;25.34;100.00;97700.91;5121232;28;19923;-61
2022/06/29 05:19:19;;;;;;;;;;;;;;;25.39;100.00;97711.53;5120869;28;19955;-63
2022/06/29 05:21:45;;;;;;;;;;;;;;;25.42;100.00;97701.81;5121222;28;19947;-62
2022/06/29 05:24:13;;;;;;;;;;;;;;;25.42;100.00;97705.34;5099712;28;19931;-62
2022/06/29 05:26:39;;;;;;;;;;;;;;;25.42;100.00;97718.22;5121272;28;19958;-62
2022/06/29 05:29:06;;;;;;;;;;;;;;;25.42;100.00;97710.81;5103477;28;19930;-62
2022/06/29 05:31:32;;;;;;;;;;;;;;;25.40;100.00;97717.81;5118951;28;19967;-62
2022/06/29 05:33:58;;;;;;;;;;;;;;;25.37;100.00;97711.13;5117755;28;19968;-62
2022/06/29 05:36:25;;;;;;;;;;;;;;;25.38;100.00;97714.66;5119120;28;19924;-63
2022/06/29 05:38:51;;;;;;;;;;;;;;;25.37;100.00;97722.06;5121243;28;19920;-62
2022/06/29 05:41:19;;;;;;;;;;;;;;;25.37;100.00;97694.72;5121006;28;19959;-62
2022/06/29 05:43:49;;;;;;;;;;;;;;;25.33;100.00;97715.72;5117576;28;19979;-63
2022/06/29 05:46:18;;;;;;;;;;;;;;;25.34;100.00;97698.19;5118097;28;20460;-63
2022/06/29 05:48:44;;;;;;;;;;;;;;;25.38;100.00;97711.91;5121494;28;19991;-63
2022/06/29 05:51:10;;;;;;;;;;;;;;;25.38;100.00;97711.91;5124846;28;19923;-63
2022/06/29 05:53:37;;;;;;;;;;;;;;;25.38;100.00;97699.00;5118115;28;20270;-62
2022/06/29 05:56:03;;;;;;;;;;;;;;;25.33;100.00;97699.31;5117759;28;20087;-62
2022/06/29 05:58:31;;;;;;;;;;;;;;;25.37;100.00;97700.19;5119835;28;19982;-62
2022/06/29 06:00:57;;;;;;;;;;;;;;;25.24;100.00;97688.63;5121210;28;19923;-62
2022/06/29 06:03:24;;;;;;;;;;;;;;;25.13;100.00;97695.03;5120026;28;20349;-63
2022/06/29 06:05:50;;;;;;;;;;;;;;;25.22;100.00;97693.66;5117833;28;19927;-63
2022/06/29 06:08:17;;;;;;;;;;;;;;;25.10;100.00;97680.16;5118492;28;19920;-61
2022/06/29 06:10:43;;;;;;;;;;;;;;;24.88;100.00;97677.44;5121579;28;19984;-62
2022/06/29 06:13:10;;;;;;;;;;;;;;;24.41;100.00;97666.72;5121883;28;19927;-62
2022/06/29 06:15:38;;;;;;;;;;;;;;;24.49;100.00;97682.88;5118678;28;20022;-63
2022/06/29 06:18:04;;;;;;;;;;;;;;;24.78;100.00;97683.44;5118086;28;19924;-62
2022/06/29 06:20:31;;;;;;;;;;;;;;;24.74;100.00;97677.91;5123033;28;19934;-62
2022/06/29 06:22:57;;;;;;;;;;;;;;;24.71;100.00;97684.88;5121307;28;19924;-64
2022/06/29 06:25:24;;;;;;;;;;;;;;;24.59;100.00;97676.84;5120117;28;19935;-63
2022/06/29 06:27:50;;;;;;;;;;;;;;;24.74;100.00;97683.38;5118660;28;19924;-62
2022/06/29 06:30:17;;;;;;;;;;;;;;;24.92;100.00;97691.94;5121902;28;20033;-62
2022/06/29 06:32:44;;;;;;;;;;;;;;;25.00;100.00;97682.72;5124787;28;19954;-62
2022/06/29 06:35:11;;;;;;;;;;;;;;;24.99;100.00;97686.59;5125351;28;19923;-63
2022/06/29 06:37:37;;;;;;;;;;;;;;;24.98;100.00;97693.22;5121895;28;19946;-62
2022/06/29 06:42:48;;;;;;;;;;;;;;;24.48;100.00;97685.97;5121606;28;20554;-62
2022/06/29 06:45:14;;;;;;;;;;;;;;;24.44;100.00;97694.09;5121625;28;19935;-63
2022/06/29 06:47:40;;;;;;;;;;;;;;;24.47;100.00;97682.44;5112918;28;19924;-63
2022/06/29 06:50:09;;;;;;;;;;;;;;;24.14;100.00;97687.56;5113795;27;19955;-63
2022/06/29 06:52:35;;;;;;;;;;;;;;;24.11;100.00;97700.00;5125571;27;19955;-62
2022/06/29 06:55:02;;;;;;;;;;;;;;;24.47;100.00;97701.56;5124837;28;19962;-62
2022/06/29 06:57:28;;;;;;;;;;;;;;;24.66;100.00;97707.00;5122594;28;19924;-62
2022/06/29 06:59:54;;;;;;;;;;;;;;;24.84;100.00;97699.22;5121127;28;19924;-62
2022/06/29 07:02:21;;;;;;;;;;;;;;;24.89;100.00;97700.84;5121749;28;19955;-62
2022/06/29 07:04:47;;;;;;;;;;;;;;;24.91;100.00;97710.28;5124475;28;19955;-62
2022/06/29 07:07:15;;;;;;;;;;;;;;;25.06;100.00;97714.06;5124340;28;19924;-62
2022/06/29 07:09:41;;;;;;;;;;;;;;;24.94;100.00;97716.97;5120803;28;19962;-62
2022/06/29 07:12:08;;;;;;;;;;;;;;;24.98;100.00;97715.06;5121036;28;20580;-62
2022/06/29 07:14:34;;;;;;;;;;;;;;;25.01;100.00;97720.59;5123483;28;20419;-62
2022/06/29 07:17:01;;;;;;;;;;;;;;;24.99;100.00;97722.13;5124557;28;19930;-63
2022/06/29 07:19:27;;;;;;;;;;;;;;;24.79;100.00;97715.06;5122837;28;19924;-63
2022/06/29 07:21:54;;;;;;;;;;;;;;;24.64;100.00;97728.44;5124149;27;19958;-61
2022/06/29 07:24:22;;;;;;;;;;;;;;;24.50;100.00;97730.88;5121307;28;19932;-62
2022/06/29 07:26:48;;;;;;;;;;;;;;;23.89;100.00;97729.84;5124313;28;19967;-62
2022/06/29 07:29:14;;;;;;;;;;;;;;;23.94;100.00;97741.28;5124080;28;19923;-62
2022/06/29 07:31:41;;;;;;;;;;;;;;;23.57;100.00;97729.88;5111891;28;19955;-62
2022/06/29 07:34:07;;;;;;;;;;;;;;;23.46;100.00;97739.69;5112045;28;19951;-62
2022/06/29 07:36:33;;;;;;;;;;;;;;;23.09;100.00;97741.81;5111850;28;19962;-63
2022/06/29 07:39:00;;;;;;;;;;;;;;;22.78;100.00;97746.38;5111695;28;19924;-63
2022/06/29 07:41:27;;;;;;;;;;;;;;;22.75;100.00;97749.78;5111671;28;19960;-62
2022/06/29 07:43:55;;;;;;;;;;;;;;;22.76;100.00;97751.38;5111908;28;19925;-62
2022/06/29 07:46:22;;;;;;;;;;;;;;;22.64;100.00;97751.38;5111877;28;20015;-62
2022/06/29 07:48:48;;;;;;;;;;;;;;;22.52;100.00;97742.13;5111906;28;19928;-63
2022/06/29 07:51:15;;;;;;;;;;;;;;;22.60;100.00;97743.91;5123664;27;19924;-63
2022/06/29 07:53:41;;;;;;;;;;;;;;;22.29;100.00;97741.03;5111510;28;19934;-62
2022/06/29 07:56:07;;;;;;;;;;;;;;;22.11;100.00;97736.97;5111661;28;19924;-62
2022/06/29 07:58:35;;;;;;;;;;;;;;;22.26;100.00;97743.66;5111518;28;19924;-63
2022/06/29 08:01:01;;;;;;;;;;;;;;;22.34;100.00;97743.53;5111323;28;19924;-63
2022/06/29 08:03:27;;;;;;;;;;;;;;;22.40;100.00;97755.75;5111150;28;20443;-62
2022/06/29 08:05:54;;;;;;;;;;;;;;;22.47;100.00;97752.44;5111308;28;19976;-61
2022/06/29 08:08:20;;;;;;;;;;;;;;;22.43;100.00;97751.56;5111245;28;19963;-62
2022/06/29 08:10:47;;;;;;;;;;;;;;;22.32;100.00;97747.72;5110904;28;19959;-63
2022/06/29 08:13:13;;;;;;;;;;;;;;;22.30;100.00;97739.91;5111136;28;19963;-62
2022/06/29 08:15:41;;;;;;;;;;;;;;;22.72;100.00;97734.13;5111071;28;19970;-62
2022/06/29 08:18:07;;;;;;;;;;;;;;;22.76;100.00;97726.88;5111237;28;19932;-62
2022/06/29 08:20:34;;;;;;;;;;;;;;;22.78;100.00;97730.81;5117030;27;19933;-62
2022/06/29 08:23:00;;;;;;;;;;;;;;;22.81;100.00;97732.84;5122742;28;19923;-62
2022/06/29 08:25:26;;;;;;;;;;;;;;;22.86;100.00;97729.91;5121185;28;19924;-61
2022/06/29 08:27:53;;;;;;;;;;;;;;;23.35;100.00;97719.53;5119217;28;20026;-62
2022/06/29 08:30:19;;;;;;;;;;;;;;;23.53;100.00;97718.06;5119757;28;19963;-63
2022/06/29 08:32:47;;;;;;;;;;;;;;;23.10;100.00;97720.81;5122621;28;19947;-62
2022/06/29 08:35:14;;;;;;;;;;;;;;;23.19;100.00;97726.88;5122777;28;19963;-62
2022/06/29 08:37:40;;;;;;;;;;;;;;;23.00;100.00;97724.03;5118917;28;19924;-62
2022/06/29 08:40:07;;;;;;;;;;;;;;;23.13;100.00;97714.66;5119143;28;19924;-63
2022/06/29 08:42:35;;;;;;;;;;;;;;;23.33;100.00;97705.47;5121601;28;19931;-63
2022/06/29 08:45:02;;;;;;;;;;;;;;;23.26;100.00;97713.47;5122426;28;19924;-62
2022/06/29 08:47:28;;;;;;;;;;;;;;;23.13;100.00;97711.94;5120609;28;19923;-62
2022/06/29 08:49:56;;;;;;;;;;;;;;;23.06;100.00;97719.91;5118631;28;19947;-63
2022/06/29 08:52:24;;;;;;;;;;;;;;;23.10;100.00;97716.16;5123290;28;19924;-62
2022/06/29 08:54:52;;;;;;;;;;;;;;;23.22;100.00;97719.94;5122404;28;19934;-62
2022/06/29 08:57:18;;;;;;;;;;;;;;;23.13;100.00;97709.22;5122315;28;19931;-62
2022/06/29 08:59:45;;;;;;;;;;;;;;;23.19;100.00;97721.44;5118700;28;19924;-62
2022/06/29 09:02:12;;;;;;;;;;;;;;;23.37;100.00;97714.50;5118693;28;19924;-63
2022/06/29 09:04:38;;;;;;;;;;;;;;;23.39;100.00;97715.00;5121893;28;20253;-62
2022/06/29 09:07:06;;;;;;;;;;;;;;;23.49;100.00;97710.94;5122157;28;19923;-62
2022/06/29 09:09:52;;;;;;;;;;;;;;;23.52;100.00;97711.03;5119846;28;19935;-62
2022/06/29 09:12:20;;;;;;;;;;;;;;;23.71;100.00;97712.25;5118576;28;21312;-63
2022/06/29 09:14:46;;;;;;;;;;;;;;;23.78;100.00;97710.50;5122202;28;19923;-62
2022/06/29 09:17:13;;;;;;;;;;;;;;;24.13;100.00;97696.91;5122355;28;19974;-62
2022/06/29 09:19:46;;;;;;;;;;;;;;;24.16;100.00;97699.72;5118888;28;19924;-62
2022/06/29 09:22:14;;;;;;;;;;;;;;;24.16;100.00;97698.94;5122018;28;19924;-63
2022/06/29 09:24:41;;;;;;;;;;;;;;;24.59;100.00;97701.41;5110160;28;19989;-62
2022/06/29 09:27:08;;;;;;;;;;;;;;;24.47;100.00;97700.75;5110162;28;19963;-62
2022/06/29 09:29:36;;;;;;;;;;;;;;;24.39;100.00;97699.81;5109969;28;19925;-62
2022/06/29 09:32:13;;;;;;;;;;;;;;;24.05;100.00;97693.19;5110063;28;19925;-62
2022/06/29 09:34:41;;;;;;;;;;;;;;;23.96;100.00;97697.25;5109899;28;19935;-62
2022/06/29 09:37:09;;;;;;;;;;;;;;;24.21;100.00;97692.38;5109851;28;19973;-63
2022/06/29 09:39:37;;;;;;;;;;;;;;;24.41;100.00;97683.88;5109703;28;19924;-64
2022/06/29 09:42:04;;;;;;;;;;;;;;;24.27;100.00;97694.50;5109632;28;19924;-63
2022/06/29 09:44:30;;;;;;;;;;;;;;;24.28;100.00;97687.88;5109856;28;19932;-62
2022/06/29 09:46:57;;;;;;;;;;;;;;;24.21;100.00;97690.47;5109762;28;19928;-62
2022/06/29 09:49:25;;;;;;;;;;;;;;;24.19;100.00;97690.03;5109665;28;19959;-62
2022/06/29 09:51:54;;;;;;;;;;;;;;;23.96;100.00;97702.72;5121601;28;19946;-62
2022/06/29 09:54:22;;;;;;;;;;;;;;;24.03;100.00;97689.25;5118854;28;19971;-63
2022/06/29 09:56:50;;;;;;;;;;;;;;;24.07;100.00;97692.84;5121602;28;19963;-62
2022/06/29 09:59:22;;;;;;;;;;;;;;;24.28;100.00;97696.06;5121374;28;19927;-63
2022/06/29 10:04:32;;;;;;;;;;;;;;;24.50;100.00;97689.13;5124341;28;20679;-62
2022/06/29 10:06:59;;;;;;;;;;;;;;;24.37;100.00;97696.66;5124970;28;20013;-63
2022/06/29 10:09:25;;;;;;;;;;;;;;;24.24;100.00;97697.13;5123929;28;19920;-64
2022/06/29 10:14:52;;;;;;;;;;;;;;;24.15;100.00;97691.88;5121794;28;19924;-62
2022/06/29 10:17:24;;;;;;;;;;;;;;;24.34;100.00;97686.47;5121879;28;19987;-63
2022/06/29 10:19:58;;;;;;;;;;;;;;;24.29;100.00;97688.69;5125003;28;20026;-64
2022/06/29 10:22:24;;;;;;;;;;;;;;;24.17;100.00;97681.41;5126495;27;19924;-62
2022/06/29 10:25:00;;;;;;;;;;;;;;;24.26;100.00;97678.47;5124686;28;20012;-62
2022/06/29 10:27:28;;;;;;;;;;;;;;;24.26;100.00;97682.00;5123300;28;19924;-63
2022/06/29 10:30:09;;;;;;;;;;;;;;;24.53;100.00;97677.50;5121374;28;19959;-63
2022/06/29 10:32:38;;;;;;;;;;;;;;;24.73;100.00;97674.38;5123341;28;20011;-63
2022/06/29 10:35:08;;;;;;;;;;;;;;;24.72;100.00;97674.75;5124788;28;19928;-63
2022/06/29 10:37:46;;;;;;;;;;;;;;;24.91;100.00;97663.03;5121914;28;19928;-62
2022/06/29 10:40:16;;;;;;;;;;;;;;;24.80;100.00;97675.66;5121253;28;19924;-63
2022/06/29 10:45:38;;;;;;;;;;;;;;;24.46;100.00;97674.59;5122503;28;19962;-63
2022/06/29 10:48:17;;;;;;;;;;;;;;;24.71;100.00;97673.16;5124745;28;19928;-63
2022/06/29 10:50:45;;;;;;;;;;;;;;;24.66;100.00;97676.97;5126324;27;19923;-63
2022/06/29 10:53:12;;;;;;;;;;;;;;;24.55;100.00;97673.25;5124370;28;19923;-63
2022/06/29 10:55:39;;;;;;;;;;;;;;;24.41;100.00;97675.69;5120902;28;19924;-62
2022/06/29 10:58:08;;;;;;;;;;;;;;;24.60;100.00;97680.38;5120818;28;19932;-63
2022/06/29 11:00:35;;;;;;;;;;;;;;;24.56;100.00;97665.84;5123048;28;20024;-63
2022/06/29 11:03:09;;;;;;;;;;;;;;;24.57;100.00;97670.16;5124090;28;19970;-62
2022/06/29 11:05:35;;;;;;;;;;;;;;;24.60;100.00;97658.53;5121340;28;19928;-62
2022/06/29 11:13:32;;;;;;;;;;;;;;;24.82;100.00;97665.22;5121572;28;19924;-63
2022/06/29 11:15:59;;;;;;;;;;;;;;;24.79;100.00;97655.75;5124053;28;19930;-63
2022/06/29 11:18:28;;;;;;;;;;;;;;;25.03;100.00;97652.75;5122595;28;19930;-62
2022/06/29 11:20:55;;;;;;;;;;;;;;;25.17;100.00;97658.44;5127534;27;19931;-63
2022/06/29 11:23:24;;;;;;;;;;;;;;;25.22;100.00;97649.16;5122688;28;19931;-62
2022/06/29 11:25:54;;;;;;;;;;;;;;;25.25;100.00;97653.91;5120173;28;20482;-63
2022/06/29 11:28:23;;;;;;;;;;;;;;;25.35;100.00;97650.53;5120803;28;20018;-63
2022/06/29 11:31:00;;;;;;;;;;;;;;;25.43;100.00;97654.97;5123495;28;19987;-62
2022/06/29 11:33:27;;;;;;;;;;;;;;;25.61;100.00;97645.16;5121688;28;19923;-63
2022/06/29 11:35:54;;;;;;;;;;;;;;;25.52;100.00;97641.88;5120185;28;20389;-62
2022/06/29 11:38:20;;;;;;;;;;;;;;;25.67;100.00;97629.19;5120630;28;19964;-63
2022/06/29 11:40:50;;;;;;;;;;;;;;;25.89;100.00;97628.34;5123143;28;19924;-62
2022/06/29 11:43:18;;;;;;;;;;;;;;;25.94;100.00;97635.44;5122994;28;19953;-63
2022/06/29 11:45:46;;;;;;;;;;;;;;;26.05;100.00;97631.72;5119575;28;19924;-63
2022/06/29 11:48:15;;;;;;;;;;;;;;;25.97;100.00;97634.69;5119930;28;20223;-65
2022/06/29 11:50:48;;;;;;;;;;;;;;;25.81;100.00;97634.09;5126837;27;19928;-64
2022/06/29 11:53:34;;;;;;;;;;;;;;;25.83;100.00;97626.31;5123223;28;19935;-63
2022/06/29 11:56:01;;;;;;;;;;;;;;;25.45;100.00;97640.94;5119470;28;19963;-63
2022/06/29 11:58:28;;;;;;;;;;;;;;;25.36;100.00;97637.66;5121075;28;19924;-62
2022/06/29 12:00:54;;;;;;;;;;;;;;;25.62;100.00;97635.78;5122780;28;19928;-63
2022/06/29 12:03:22;;;;;;;;;;;;;;;25.59;100.00;97631.03;5122120;28;19928;-64
2022/06/29 12:05:57;;;;;;;;;;;;;;;25.71;100.00;97627.31;5119273;28;20502;-63
2022/06/29 12:08:23;;;;;;;;;;;;;;;25.82;100.00;97633.72;5120125;28;20368;-62
2022/06/29 12:10:50;;;;;;;;;;;;;;;25.68;100.00;97634.31;5122495;28;19991;-63
2022/06/29 12:13:16;;;;;;;;;;;;;;;25.44;100.00;97631.16;5122546;28;20331;-63
2022/06/29 12:15:42;;;;;;;;;;;;;;;25.26;100.00;97639.06;5110549;28;19935;-62
2022/06/29 12:18:08;;;;;;;;;;;;;;;25.21;100.00;97636.66;5110858;28;19934;-62
2022/06/29 12:20:36;;;;;;;;;;;;;;;25.17;100.00;97636.59;5116665;27;19955;-64
2022/06/29 12:23:03;;;;;;;;;;;;;;;25.30;100.00;97634.44;5122381;28;19952;-63
2022/06/29 12:25:29;;;;;;;;;;;;;;;25.47;100.00;97635.91;5119627;28;19946;-63
2022/06/29 12:27:55;;;;;;;;;;;;;;;25.27;100.00;97634.38;5118965;28;19959;-62
2022/06/29 12:30:22;;;;;;;;;;;;;;;25.21;100.00;97636.66;5119846;28;19987;-62
2022/06/29 12:32:48;;;;;;;;;;;;;;;25.09;100.00;97640.34;5122324;28;19951;-62
2022/06/29 12:35:14;;;;;;;;;;;;;;;25.12;100.00;97638.84;5104331;28;19970;-63
2022/06/29 12:37:43;;;;;;;;;;;;;;;25.04;100.00;97648.03;5118682;28;19928;-62
2022/06/29 12:40:11;;;;;;;;;;;;;;;25.02;100.00;97650.34;5118603;28;19931;-62
2022/06/29 12:42:37;;;;;;;;;;;;;;;25.01;100.00;97648.78;5121435;28;20266;-62
2022/06/29 12:45:04;;;;;;;;;;;;;;;25.06;100.00;97649.28;5122209;28;20019;-63
2022/06/29 12:47:30;;;;;;;;;;;;;;;25.20;100.00;97640.53;5101889;28;19935;-63
2022/06/29 12:49:57;;;;;;;;;;;;;;;25.02;100.00;97647.63;5118742;28;19928;-63
2022/06/29 12:52:23;;;;;;;;;;;;;;;25.30;100.00;97650.84;5123084;27;19952;-63
2022/06/29 12:54:51;;;;;;;;;;;;;;;25.34;100.00;97635.31;5121995;28;19923;-62
2022/06/29 12:57:17;;;;;;;;;;;;;;;25.34;100.00;97640.78;5121872;28;19963;-64